Altamahaw, North Carolina
Current Conditions -  °F | °C
As of 9:54 PM on Sunday 23 Nov 2014 (Local Time) from KBUY Reporting Station
Heavy Rain Heavy Rain  
Wind Chill: 62°   Ceiling: 1000
Heat Index: 62°   Visibility: 4mi
Dew Point: 59°   Wind: 12mph
Humidity: 90%   Direction: 140°SE
Pressure: 29.78"   Gusts: 24mph
Location:  36.18°N, 79.51°W
Report Text: KBUY 240254Z AUTO 14010G21KT 4SM +RA BR OVC010 17/15 A2978 RMK AO2 CIG 007V014 SLP083 P0016 60025 T01670150 56022
Loading
Personal Weather Stations






























Interactive Weather Map New forecast layout! Learn more

10-Day Weather Forecast

Advertisements
Track Severe Weather on mobile